createdAt,value
2023-06-28T00:04:45.251Z,90.29
2023-06-28T00:09:50.802Z,90.63
2023-06-28T00:14:55.782Z,90.87
2023-06-28T00:20:12.173Z,91.62
2023-06-28T00:25:16.346Z,91.90
2023-06-28T00:30:20.455Z,92.46
2023-06-28T00:35:24.470Z,93.24
2023-06-28T00:40:29.434Z,93.28
2023-06-28T00:45:33.562Z,93.74
2023-06-28T00:50:38.348Z,93.70
2023-06-28T00:55:42.577Z,93.53
2023-06-28T01:00:47.285Z,94.07
2023-06-28T01:05:54.309Z,94.31
2023-06-28T01:11:00.368Z,94.86
2023-06-28T01:16:04.733Z,95.40
2023-06-28T01:21:12.497Z,95.25
2023-06-28T01:26:18.770Z,95.35
2023-06-28T01:31:23.380Z,95.74
2023-06-28T01:36:28.075Z,95.92
2023-06-28T01:41:32.879Z,96.08
2023-06-28T01:46:38.581Z,96.47
2023-06-28T01:51:44.868Z,96.64
2023-06-28T01:56:49.643Z,96.66
2023-06-28T02:01:55.334Z,96.78
2023-06-28T02:06:59.416Z,97.12
2023-06-28T02:12:04.329Z,97.27
2023-06-28T02:17:16.026Z,97.41
2023-06-28T02:22:20.724Z,97.58
2023-06-28T02:27:24.922Z,97.87
2023-06-28T02:32:32.318Z,98.29
2023-06-28T02:37:36.474Z,98.18
2023-06-28T02:42:40.570Z,98.17
2023-06-28T02:47:44.503Z,98.53
2023-06-28T02:52:48.905Z,98.47
2023-06-28T02:57:53.832Z,98.67
2023-06-28T03:02:57.859Z,98.74
2023-06-28T03:08:06.343Z,98.51
2023-06-28T03:13:10.422Z,98.69
2023-06-28T03:18:14.822Z,99.20
2023-06-28T03:23:19.193Z,99.65
2023-06-28T03:28:23.205Z,99.79
2023-06-28T03:33:27.218Z,99.78
2023-06-28T03:38:31.116Z,99.89
2023-06-28T03:43:35.625Z,99.80
2023-06-28T03:48:39.611Z,99.76
2023-06-28T03:53:43.783Z,100.00
2023-06-28T03:58:47.703Z,100.00
2023-06-28T04:03:51.897Z,97.45
2023-06-28T04:08:56.714Z,96.92
2023-06-28T04:14:00.744Z,94.36
2023-06-28T04:19:06.847Z,94.28
2023-06-28T04:24:11.590Z,93.64
2023-06-28T04:29:15.518Z,92.08
2023-06-28T04:34:19.979Z,90.66
2023-06-28T04:39:24.207Z,91.67
2023-06-28T04:44:35.693Z,93.39
2023-06-28T04:49:40.063Z,92.93
2023-06-28T04:54:44.190Z,94.09
2023-06-28T04:59:48.566Z,92.12
2023-06-28T05:04:53.100Z,89.44
2023-06-28T05:09:57.106Z,87.57
2023-06-28T05:15:01.168Z,85.34
2023-06-28T05:20:06.745Z,85.84
2023-06-28T05:25:10.901Z,86.12
2023-06-28T05:30:14.981Z,86.88
2023-06-28T05:35:18.897Z,86.68
2023-06-28T05:40:23.031Z,87.06
2023-06-28T05:45:31.023Z,88.09
2023-06-28T05:50:37.153Z,87.24
2023-06-28T05:55:43.281Z,87.10
2023-06-28T06:00:47.338Z,87.14
2023-06-28T06:05:54.720Z,86.99
2023-06-28T06:10:58.787Z,86.73
2023-06-28T06:16:03.212Z,87.31
2023-06-28T06:21:07.743Z,87.18
2023-06-28T06:26:12.971Z,87.19
2023-06-28T06:31:16.844Z,88.65
2023-06-28T06:36:20.961Z,88.35
2023-06-28T06:41:25.592Z,86.71
2023-06-28T06:46:29.764Z,86.89
2023-06-28T06:51:34.980Z,85.37
2023-06-28T06:56:39.032Z,84.80
2023-06-28T07:01:43.056Z,83.17
2023-06-28T07:06:48.164Z,83.32
2023-06-28T07:11:52.219Z,81.37
2023-06-28T07:16:56.404Z,80.77
2023-06-28T07:22:00.399Z,81.98
2023-06-28T07:27:04.949Z,80.72
2023-06-28T07:32:09.842Z,79.39
2023-06-28T07:37:13.867Z,78.54
2023-06-28T07:42:17.999Z,78.03
2023-06-28T07:47:22.069Z,78.71
2023-06-28T07:52:25.981Z,76.46
2023-06-28T07:57:29.903Z,75.23
2023-06-28T08:02:33.842Z,74.20
2023-06-28T08:07:37.969Z,73.21
2023-06-28T08:12:42.160Z,72.71
2023-06-28T08:17:49.576Z,72.57
2023-06-28T08:22:53.763Z,71.12
2023-06-28T08:27:57.681Z,70.52
2023-06-28T08:33:02.098Z,70.68
2023-06-28T08:38:06.041Z,69.08
2023-06-28T08:43:12.419Z,70.56
2023-06-28T08:48:28.451Z,68.07
2023-06-28T08:53:34.362Z,66.58
2023-06-28T08:58:39.692Z,67.87
2023-06-28T09:03:45.148Z,67.48
2023-06-28T09:08:49.762Z,65.54
2023-06-28T09:13:54.587Z,66.09
2023-06-28T09:18:58.558Z,66.84
2023-06-28T09:24:02.675Z,67.06
2023-06-28T09:29:13.013Z,66.99
2023-06-28T09:34:24.158Z,67.95
2023-06-28T09:39:38.529Z,68.61
2023-06-28T09:44:56.521Z,69.31
2023-06-28T09:50:04.058Z,70.54
2023-06-28T09:55:09.504Z,72.02
2023-06-28T10:00:14.914Z,72.45
2023-06-28T10:05:21.126Z,72.54
2023-06-28T10:10:25.365Z,73.08
2023-06-28T10:15:34.436Z,73.17
2023-06-28T10:20:40.505Z,73.73
2023-06-28T10:25:48.408Z,73.42
2023-06-28T10:30:54.249Z,73.20
2023-06-28T10:35:58.354Z,73.46
2023-06-28T10:41:03.110Z,73.53
2023-06-28T10:46:24.334Z,73.57
2023-06-28T10:51:31.485Z,73.80
2023-06-28T10:56:49.205Z,74.10
2023-06-28T11:02:00.210Z,74.38
2023-06-28T11:07:04.701Z,74.33
2023-06-28T11:12:16.636Z,74.51
2023-06-28T11:17:21.363Z,74.99
2023-06-28T11:22:52.321Z,75.17
2023-06-28T11:27:59.927Z,75.64
2023-06-28T11:33:04.281Z,75.90
2023-06-28T11:38:09.322Z,76.47
2023-06-28T11:43:13.263Z,76.50
2023-06-28T11:48:17.281Z,76.95
2023-06-28T11:53:22.825Z,76.81
2023-06-28T11:58:30.343Z,77.13
2023-06-28T12:03:39.286Z,77.06
2023-06-28T12:08:43.328Z,77.62
2023-06-28T12:13:47.232Z,77.32
2023-06-28T12:19:02.422Z,77.45
2023-06-28T12:24:22.711Z,76.89
2023-06-28T12:29:30.724Z,76.74
2023-06-28T12:34:36.356Z,76.34
2023-06-28T12:39:42.178Z,76.71
2023-06-28T12:44:56.838Z,76.93
2023-06-28T12:50:01.292Z,77.45
2023-06-28T12:55:06.298Z,76.81
2023-06-28T13:00:11.273Z,75.63
2023-06-28T13:05:15.703Z,75.76
2023-06-28T13:10:19.585Z,76.31
2023-06-28T13:15:23.444Z,75.37
2023-06-28T13:20:27.225Z,75.53
2023-06-28T13:25:31.038Z,75.27
2023-06-28T13:30:35.014Z,75.28
2023-06-28T13:35:38.876Z,75.16
2023-06-28T13:40:42.659Z,75.35
2023-06-28T13:45:46.456Z,75.98
2023-06-28T13:50:50.731Z,75.62
2023-06-28T13:55:54.675Z,75.81
2023-06-28T14:00:59.765Z,75.90
2023-06-28T14:06:04.165Z,76.78
2023-06-28T14:11:08.585Z,76.67
2023-06-28T14:16:12.691Z,76.96
2023-06-28T14:21:17.140Z,76.76
2023-06-28T14:26:21.035Z,77.21
2023-06-28T14:31:25.930Z,77.61
2023-06-28T14:36:29.988Z,77.73
2023-06-28T14:41:33.918Z,78.50
2023-06-28T14:46:38.471Z,79.26
2023-06-28T14:51:42.478Z,80.05
2023-06-28T14:56:46.488Z,80.78
2023-06-28T15:01:50.260Z,81.70
2023-06-28T15:06:54.036Z,81.91
2023-06-28T15:11:57.803Z,81.84
2023-06-28T15:17:01.972Z,81.87
2023-06-28T15:22:06.650Z,81.78
2023-06-28T15:27:13.848Z,81.87
2023-06-28T15:32:18.777Z,81.93
2023-06-28T15:37:26.394Z,82.32
2023-06-28T15:42:30.678Z,82.64
2023-06-28T15:47:36.361Z,83.36
2023-06-28T15:52:41.012Z,84.11
2023-06-28T15:57:45.875Z,84.65
2023-06-28T16:02:50.632Z,85.30
2023-06-28T16:07:55.035Z,85.83
2023-06-28T16:13:01.703Z,86.28
2023-06-28T16:18:12.672Z,86.43
2023-06-28T16:24:14.064Z,86.57
2023-06-28T16:30:33.506Z,86.74
2023-06-28T16:35:44.328Z,87.05
2023-06-28T16:40:51.234Z,87.39
2023-06-28T16:46:00.432Z,87.63
2023-06-28T16:51:07.089Z,88.36
2023-06-28T16:56:11.298Z,88.75
2023-06-28T17:01:15.808Z,89.17
2023-06-28T17:06:20.120Z,89.79
2023-06-28T17:11:32.732Z,90.30
2023-06-28T17:16:42.214Z,90.61
2023-06-28T17:21:46.558Z,90.68
2023-06-28T17:26:58.235Z,90.78
2023-06-28T17:32:10.900Z,90.87
2023-06-28T17:37:15.955Z,90.92
2023-06-28T17:42:20.360Z,90.88
2023-06-28T17:47:24.823Z,90.82
2023-06-28T17:52:32.539Z,90.68
2023-06-28T17:57:37.364Z,90.64
2023-06-28T18:02:45.914Z,90.42
2023-06-28T18:07:50.853Z,90.27
2023-06-28T18:13:02.597Z,90.11
2023-06-28T18:18:10.918Z,89.98
2023-06-28T18:23:15.576Z,90.07
2023-06-28T18:28:20.359Z,90.11
2023-06-28T18:33:25.024Z,90.25
2023-06-28T18:38:29.912Z,90.15
2023-06-28T18:43:35.658Z,90.06
2023-06-28T18:48:40.162Z,89.98
2023-06-28T18:53:44.952Z,89.73
2023-06-28T18:58:49.823Z,89.50
2023-06-28T19:03:54.663Z,89.40
2023-06-28T19:08:59.792Z,89.27
2023-06-28T19:14:05.196Z,89.24
2023-06-28T19:19:10.305Z,89.14
2023-06-28T19:24:17.864Z,89.27
2023-06-28T19:29:22.740Z,89.22
2023-06-28T19:34:27.008Z,89.32
2023-06-28T19:39:31.017Z,89.18
2023-06-28T19:44:37.212Z,89.35
2023-06-28T19:49:42.444Z,89.48
2023-06-28T19:54:46.731Z,89.53
2023-06-28T19:59:51.768Z,89.65
2023-06-28T20:04:55.885Z,89.86
2023-06-28T20:09:59.902Z,89.97
2023-06-28T20:15:06.026Z,90.12
2023-06-28T20:20:10.633Z,90.25
2023-06-28T20:25:14.676Z,90.40
2023-06-28T20:30:21.158Z,90.66
2023-06-28T20:35:31.921Z,90.84
2023-06-28T20:40:36.022Z,90.95
2023-06-28T20:45:40.002Z,91.22
2023-06-28T20:50:44.090Z,91.37
2023-06-28T20:55:48.132Z,91.62
2023-06-28T21:00:52.239Z,91.84
2023-06-28T21:05:57.177Z,91.89
2023-06-28T21:11:01.121Z,92.07
2023-06-28T21:16:05.747Z,92.11
2023-06-28T21:21:12.543Z,92.23
2023-06-28T21:26:16.703Z,92.31
2023-06-28T21:31:21.286Z,92.53
2023-06-28T21:36:26.960Z,92.81
2023-06-28T21:41:35.701Z,93.15
2023-06-28T21:46:39.888Z,93.36
2023-06-28T21:51:43.920Z,93.49
2023-06-28T21:56:47.820Z,93.54
2023-06-28T22:01:51.778Z,93.68
2023-06-28T22:12:05.995Z,94.06
2023-06-28T22:17:11.395Z,94.05
2023-06-28T22:22:15.663Z,94.27
2023-06-28T22:27:19.987Z,94.35
2023-06-28T22:32:23.950Z,94.46
2023-06-28T22:37:27.963Z,94.52
2023-06-28T22:42:32.208Z,94.81
2023-06-28T22:47:36.649Z,94.83
2023-06-28T22:52:45.732Z,95.00
2023-06-28T22:57:49.941Z,95.10
2023-06-28T23:02:54.551Z,95.48
2023-06-28T23:07:59.515Z,95.78
2023-06-28T23:13:03.471Z,95.87
2023-06-28T23:18:08.002Z,96.09
2023-06-28T23:23:14.400Z,96.37
2023-06-28T23:28:22.503Z,96.49
2023-06-28T23:33:26.461Z,96.82
2023-06-28T23:38:30.463Z,97.08
2023-06-28T23:43:34.573Z,97.06
2023-06-28T23:48:39.162Z,97.28
2023-06-28T23:53:43.246Z,97.34
2023-06-28T23:58:47.307Z,97.54
